sensor_id;sensor_type;location;lat;lon;timestamp;pressure;altitude;pressure_sealevel;temperature;humidity
34696;BME280;20918;51.138;17.370;2023-04-23T00:00:39;99750.71;;;6.90;65.92
34696;BME280;20918;51.138;17.370;2023-04-23T00:03:40;99752.23;;;6.87;65.98
34696;BME280;20918;51.138;17.370;2023-04-23T00:06:42;99748.52;;;6.86;65.95
34696;BME280;20918;51.138;17.370;2023-04-23T00:09:43;99745.65;;;6.86;66.00
34696;BME280;20918;51.138;17.370;2023-04-23T00:12:44;99746.23;;;6.84;66.00
34696;BME280;20918;51.138;17.370;2023-04-23T00:15:45;99740.73;;;6.81;66.20
34696;BME280;20918;51.138;17.370;2023-04-23T00:18:46;99740.33;;;6.72;66.31
34696;BME280;20918;51.138;17.370;2023-04-23T00:21:48;99740.79;;;6.68;66.46
34696;BME280;20918;51.138;17.370;2023-04-23T00:24:51;99737.36;;;6.65;66.43
34696;BME280;20918;51.138;17.370;2023-04-23T00:27:54;99740.34;;;6.63;66.66
34696;BME280;20918;51.138;17.370;2023-04-23T00:30:55;99738.25;;;6.58;66.68
34696;BME280;20918;51.138;17.370;2023-04-23T00:33:55;99735.41;;;6.57;66.81
34696;BME280;20918;51.138;17.370;2023-04-23T00:36:56;99734.94;;;6.56;66.78
34696;BME280;20918;51.138;17.370;2023-04-23T00:39:57;99730.45;;;6.51;67.01
34696;BME280;20918;51.138;17.370;2023-04-23T00:42:59;99724.29;;;6.48;67.22
34696;BME280;20918;51.138;17.370;2023-04-23T00:46:00;99723.92;;;6.41;67.25
34696;BME280;20918;51.138;17.370;2023-04-23T00:49:01;99719.45;;;6.37;67.42
34696;BME280;20918;51.138;17.370;2023-04-23T00:52:02;99713.25;;;6.35;67.31
34696;BME280;20918;51.138;17.370;2023-04-23T00:55:02;99717.56;;;6.28;67.54
34696;BME280;20918;51.138;17.370;2023-04-23T00:58:07;99715.16;;;6.19;67.70
34696;BME280;20918;51.138;17.370;2023-04-23T01:01:08;99713.98;;;6.13;67.68
34696;BME280;20918;51.138;17.370;2023-04-23T01:04:09;99716.63;;;6.02;67.91
34696;BME280;20918;51.138;17.370;2023-04-23T01:07:11;99717.20;;;5.94;68.31
34696;BME280;20918;51.138;17.370;2023-04-23T01:10:12;99721.23;;;5.88;68.61
34696;BME280;20918;51.138;17.370;2023-04-23T01:13:14;99717.05;;;5.80;68.79
34696;BME280;20918;51.138;17.370;2023-04-23T01:16:15;99718.98;;;5.71;69.08
34696;BME280;20918;51.138;17.370;2023-04-23T01:19:26;99714.67;;;5.67;69.31
34696;BME280;20918;51.138;17.370;2023-04-23T01:22:27;99716.52;;;5.66;69.47
34696;BME280;20918;51.138;17.370;2023-04-23T01:25:28;99711.63;;;5.67;69.71
34696;BME280;20918;51.138;17.370;2023-04-23T01:28:29;99710.60;;;5.69;69.93
34696;BME280;20918;51.138;17.370;2023-04-23T01:31:31;99709.98;;;5.70;70.05
34696;BME280;20918;51.138;17.370;2023-04-23T01:34:32;99706.75;;;5.69;70.08
34696;BME280;20918;51.138;17.370;2023-04-23T01:37:36;99703.34;;;5.66;70.07
34696;BME280;20918;51.138;17.370;2023-04-23T01:40:37;99704.08;;;5.64;70.19
34696;BME280;20918;51.138;17.370;2023-04-23T01:43:39;99701.79;;;5.62;70.27
34696;BME280;20918;51.138;17.370;2023-04-23T01:46:41;99698.13;;;5.61;70.30
34696;BME280;20918;51.138;17.370;2023-04-23T01:49:42;99700.80;;;5.61;70.36
34696;BME280;20918;51.138;17.370;2023-04-23T01:52:43;99697.92;;;5.64;70.43
34696;BME280;20918;51.138;17.370;2023-04-23T01:55:47;99700.48;;;5.69;70.43
34696;BME280;20918;51.138;17.370;2023-04-23T01:58:54;99700.14;;;5.70;70.74
34696;BME280;20918;51.138;17.370;2023-04-23T02:01:55;99695.79;;;5.64;71.24
34696;BME280;20918;51.138;17.370;2023-04-23T02:04:57;99694.33;;;5.59;71.32
34696;BME280;20918;51.138;17.370;2023-04-23T02:07:58;99695.62;;;5.60;71.25
34696;BME280;20918;51.138;17.370;2023-04-23T02:11:02;99691.21;;;5.64;71.07
34696;BME280;20918;51.138;17.370;2023-04-23T02:14:04;99691.74;;;5.70;71.02
34696;BME280;20918;51.138;17.370;2023-04-23T02:17:05;99688.48;;;5.74;70.98
34696;BME280;20918;51.138;17.370;2023-04-23T02:20:07;99682.57;;;5.76;71.01
34696;BME280;20918;51.138;17.370;2023-04-23T02:23:09;99681.17;;;5.74;71.11
34696;BME280;20918;51.138;17.370;2023-04-23T02:26:09;99682.13;;;5.71;71.20
34696;BME280;20918;51.138;17.370;2023-04-23T02:29:10;99682.27;;;5.66;71.57
34696;BME280;20918;51.138;17.370;2023-04-23T02:32:11;99676.19;;;5.54;71.47
34696;BME280;20918;51.138;17.370;2023-04-23T02:35:12;99678.34;;;5.50;71.58
34696;BME280;20918;51.138;17.370;2023-04-23T02:38:14;99677.30;;;5.52;71.54
34696;BME280;20918;51.138;17.370;2023-04-23T02:41:15;99681.04;;;5.61;71.55
34696;BME280;20918;51.138;17.370;2023-04-23T02:44:15;99676.57;;;5.69;71.48
34696;BME280;20918;51.138;17.370;2023-04-23T02:47:16;99679.51;;;5.73;71.50
34696;BME280;20918;51.138;17.370;2023-04-23T02:50:17;99676.41;;;5.72;71.24
34696;BME280;20918;51.138;17.370;2023-04-23T02:53:18;99676.08;;;5.70;71.37
34696;BME280;20918;51.138;17.370;2023-04-23T02:56:19;99673.34;;;5.66;71.53
34696;BME280;20918;51.138;17.370;2023-04-23T02:59:20;99672.27;;;5.59;71.44
34696;BME280;20918;51.138;17.370;2023-04-23T03:02:21;99672.31;;;5.49;71.57
34696;BME280;20918;51.138;17.370;2023-04-23T03:05:22;99676.19;;;5.41;71.77
34696;BME280;20918;51.138;17.370;2023-04-23T03:08:26;99675.53;;;5.33;71.91
34696;BME280;20918;51.138;17.370;2023-04-23T03:11:35;99675.00;;;5.32;71.95
34696;BME280;20918;51.138;17.370;2023-04-23T03:14:36;99676.01;;;5.32;72.16
34696;BME280;20918;51.138;17.370;2023-04-23T03:17:37;99675.62;;;5.32;72.13
34696;BME280;20918;51.138;17.370;2023-04-23T03:20:38;99674.36;;;5.31;72.27
34696;BME280;20918;51.138;17.370;2023-04-23T03:26:58;99674.17;;;5.31;72.40
34696;BME280;20918;51.138;17.370;2023-04-23T03:30:09;99674.76;;;5.32;72.37
34696;BME280;20918;51.138;17.370;2023-04-23T03:33:20;99674.55;;;5.32;72.43
34696;BME280;20918;51.138;17.370;2023-04-23T03:36:23;99673.30;;;5.33;72.47
34696;BME280;20918;51.138;17.370;2023-04-23T03:39:27;99670.94;;;5.28;72.60
34696;BME280;20918;51.138;17.370;2023-04-23T03:42:28;99676.02;;;5.24;72.71
34696;BME280;20918;51.138;17.370;2023-04-23T03:45:29;99673.00;;;5.17;72.84
34696;BME280;20918;51.138;17.370;2023-04-23T03:48:31;99669.63;;;5.12;72.61
34696;BME280;20918;51.138;17.370;2023-04-23T03:51:32;99668.59;;;5.12;72.87
34696;BME280;20918;51.138;17.370;2023-04-23T03:54:33;99670.44;;;5.11;72.91
34696;BME280;20918;51.138;17.370;2023-04-23T03:57:54;99663.77;;;5.13;73.25
34696;BME280;20918;51.138;17.370;2023-04-23T04:00:57;99668.05;;;5.16;73.33
34696;BME280;20918;51.138;17.370;2023-04-23T04:04:01;99667.38;;;5.19;73.70
34696;BME280;20918;51.138;17.370;2023-04-23T04:07:04;99668.33;;;5.24;73.73
34696;BME280;20918;51.138;17.370;2023-04-23T04:10:07;99664.02;;;5.36;73.63
34696;BME280;20918;51.138;17.370;2023-04-23T04:13:08;99666.38;;;5.56;73.74
34696;BME280;20918;51.138;17.370;2023-04-23T04:16:09;99665.81;;;5.80;73.65
34696;BME280;20918;51.138;17.370;2023-04-23T04:19:27;99671.63;;;6.10;73.31
34696;BME280;20918;51.138;17.370;2023-04-23T04:22:28;99665.23;;;6.43;73.18
34696;BME280;20918;51.138;17.370;2023-04-23T04:25:31;99665.19;;;6.68;72.90
34696;BME280;20918;51.138;17.370;2023-04-23T04:28:32;99665.23;;;7.01;72.84
34696;BME280;20918;51.138;17.370;2023-04-23T04:31:36;99662.54;;;7.38;72.64
34696;BME280;20918;51.138;17.370;2023-04-23T04:34:37;99660.91;;;7.65;72.05
34696;BME280;20918;51.138;17.370;2023-04-23T04:37:39;99657.91;;;8.08;72.09
34696;BME280;20918;51.138;17.370;2023-04-23T04:40:42;99655.45;;;8.61;71.67
34696;BME280;20918;51.138;17.370;2023-04-23T04:43:43;99652.11;;;9.10;71.10
34696;BME280;20918;51.138;17.370;2023-04-23T04:46:44;99653.30;;;9.63;70.59
34696;BME280;20918;51.138;17.370;2023-04-23T04:49:45;99651.43;;;10.12;69.75
34696;BME280;20918;51.138;17.370;2023-04-23T04:52:46;99652.06;;;10.59;69.18
34696;BME280;20918;51.138;17.370;2023-04-23T04:55:49;99652.23;;;11.15;68.54
34696;BME280;20918;51.138;17.370;2023-04-23T04:58:51;99653.92;;;11.68;67.89
34696;BME280;20918;51.138;17.370;2023-04-23T05:01:52;99647.33;;;12.22;67.12
34696;BME280;20918;51.138;17.370;2023-04-23T05:04:53;99641.13;;;12.71;66.13
34696;BME280;20918;51.138;17.370;2023-04-23T05:07:54;99639.39;;;13.07;65.31
34696;BME280;20918;51.138;17.370;2023-04-23T05:11:05;99636.41;;;13.47;64.98
34696;BME280;20918;51.138;17.370;2023-04-23T05:14:25;99639.42;;;13.97;64.36
34696;BME280;20918;51.138;17.370;2023-04-23T05:17:27;99638.16;;;14.48;63.47
34696;BME280;20918;51.138;17.370;2023-04-23T05:20:30;99636.23;;;14.99;62.77
34696;BME280;20918;51.138;17.370;2023-04-23T05:23:34;99632.01;;;15.44;61.32
34696;BME280;20918;51.138;17.370;2023-04-23T05:26:38;99628.33;;;15.79;60.43
34696;BME280;20918;51.138;17.370;2023-04-23T05:29:39;99627.66;;;15.94;59.72
34696;BME280;20918;51.138;17.370;2023-04-23T05:32:46;99625.46;;;16.18;58.72
34696;BME280;20918;51.138;17.370;2023-04-23T05:35:49;99624.43;;;16.30;56.84
34696;BME280;20918;51.138;17.370;2023-04-23T05:38:51;99626.09;;;16.14;55.76
34696;BME280;20918;51.138;17.370;2023-04-23T05:41:52;99627.33;;;16.08;55.08
34696;BME280;20918;51.138;17.370;2023-04-23T05:44:53;99624.73;;;16.15;55.11
34696;BME280;20918;51.138;17.370;2023-04-23T05:47:57;99624.20;;;16.45;54.80
34696;BME280;20918;51.138;17.370;2023-04-23T05:51:01;99623.64;;;16.61;53.73
34696;BME280;20918;51.138;17.370;2023-04-23T05:54:02;99621.35;;;16.68;53.73
34696;BME280;20918;51.138;17.370;2023-04-23T05:57:05;99618.25;;;16.69;52.85
34696;BME280;20918;51.138;17.370;2023-04-23T06:00:36;99613.06;;;16.69;52.44
34696;BME280;20918;51.138;17.370;2023-04-23T06:03:39;99614.89;;;16.83;52.42
34696;BME280;20918;51.138;17.370;2023-04-23T06:06:48;99609.27;;;17.18;52.00
34696;BME280;20918;51.138;17.370;2023-04-23T06:10:20;99610.58;;;17.13;50.49
34696;BME280;20918;51.138;17.370;2023-04-23T06:13:45;99611.92;;;17.03;50.24
34696;BME280;20918;51.138;17.370;2023-04-23T06:17:05;99609.34;;;16.94;49.47
34696;BME280;20918;51.138;17.370;2023-04-23T06:20:47;99608.63;;;16.77;49.30
34696;BME280;20918;51.138;17.370;2023-04-23T06:23:52;99606.04;;;16.78;49.57
34696;BME280;20918;51.138;17.370;2023-04-23T06:26:58;99606.84;;;16.90;49.19
34696;BME280;20918;51.138;17.370;2023-04-23T06:33:17;99609.91;;;17.02;48.73
34696;BME280;20918;51.138;17.370;2023-04-23T06:36:40;99607.19;;;17.15;48.51
34696;BME280;20918;51.138;17.370;2023-04-23T06:39:45;99606.83;;;17.37;47.76
34696;BME280;20918;51.138;17.370;2023-04-23T06:42:50;99599.87;;;17.56;48.11
34696;BME280;20918;51.138;17.370;2023-04-23T06:49:57;99593.17;;;18.07;47.04
34696;BME280;20918;51.138;17.370;2023-04-23T06:53:02;99588.60;;;18.21;47.32
34696;BME280;20918;51.138;17.370;2023-04-23T06:56:33;99580.53;;;18.40;47.50
34696;BME280;20918;51.138;17.370;2023-04-23T06:59:38;99579.08;;;18.55;46.38
34696;BME280;20918;51.138;17.370;2023-04-23T07:02:39;99577.95;;;18.53;45.25
34696;BME280;20918;51.138;17.370;2023-04-23T07:05:42;99574.20;;;18.51;45.22
34696;BME280;20918;51.138;17.370;2023-04-23T07:12:34;99570.98;;;18.53;44.47
34696;BME280;20918;51.138;17.370;2023-04-23T07:16:11;99571.15;;;18.71;44.77
34696;BME280;20918;51.138;17.370;2023-04-23T07:20:12;99575.08;;;19.22;45.09
34696;BME280;20918;51.138;17.370;2023-04-23T07:23:13;99568.20;;;19.64;44.40
34696;BME280;20918;51.138;17.370;2023-04-23T07:26:19;99566.85;;;19.72;42.59
34696;BME280;20918;51.138;17.370;2023-04-23T07:29:20;99563.39;;;19.67;42.69
34696;BME280;20918;51.138;17.370;2023-04-23T07:32:21;99559.20;;;19.83;42.74
34696;BME280;20918;51.138;17.370;2023-04-23T07:35:48;99561.41;;;19.94;41.87
34696;BME280;20918;51.138;17.370;2023-04-23T07:38:52;99560.58;;;19.81;40.98
34696;BME280;20918;51.138;17.370;2023-04-23T07:41:56;99561.77;;;19.84;41.44
34696;BME280;20918;51.138;17.370;2023-04-23T07:44:57;99558.98;;;20.03;41.61
34696;BME280;20918;51.138;17.370;2023-04-23T07:48:01;99551.21;;;20.27;41.85
34696;BME280;20918;51.138;17.370;2023-04-23T07:51:13;99545.81;;;20.52;41.03
34696;BME280;20918;51.138;17.370;2023-04-23T07:54:16;99543.39;;;20.53;40.50
34696;BME280;20918;51.138;17.370;2023-04-23T07:57:25;99544.41;;;20.62;41.03
34696;BME280;20918;51.138;17.370;2023-04-23T08:00:31;99540.92;;;20.91;41.08
34696;BME280;20918;51.138;17.370;2023-04-23T08:03:35;99539.63;;;21.13;40.12
34696;BME280;20918;51.138;17.370;2023-04-23T08:06:39;99542.49;;;21.14;39.27
34696;BME280;20918;51.138;17.370;2023-04-23T08:10:05;99539.89;;;21.14;39.69
34696;BME280;20918;51.138;17.370;2023-04-23T08:13:18;99539.10;;;21.23;39.09
34696;BME280;20918;51.138;17.370;2023-04-23T08:16:22;99529.23;;;21.23;38.53
34696;BME280;20918;51.138;17.370;2023-04-23T08:19:44;99524.30;;;21.17;38.32
34696;BME280;20918;51.138;17.370;2023-04-23T08:23:12;99528.98;;;21.21;37.93
34696;BME280;20918;51.138;17.370;2023-04-23T08:26:43;99526.70;;;21.25;37.87
34696;BME280;20918;51.138;17.370;2023-04-23T08:29:54;99524.96;;;21.28;37.90
34696;BME280;20918;51.138;17.370;2023-04-23T08:33:06;99523.91;;;21.36;38.04
34696;BME280;20918;51.138;17.370;2023-04-23T08:36:08;99521.91;;;21.54;38.20
34696;BME280;20918;51.138;17.370;2023-04-23T08:39:33;99518.37;;;21.67;38.15
34696;BME280;20918;51.138;17.370;2023-04-23T08:43:04;99516.05;;;21.95;37.79
34696;BME280;20918;51.138;17.370;2023-04-23T08:46:11;99514.12;;;22.08;37.26
34696;BME280;20918;51.138;17.370;2023-04-23T08:49:17;99508.85;;;22.06;37.93
34696;BME280;20918;51.138;17.370;2023-04-23T08:52:46;99505.30;;;22.23;37.94
34696;BME280;20918;51.138;17.370;2023-04-23T08:56:12;99503.64;;;22.39;37.54
34696;BME280;20918;51.138;17.370;2023-04-23T08:59:14;99500.10;;;22.29;37.45
34696;BME280;20918;51.138;17.370;2023-04-23T09:02:45;99497.77;;;22.21;37.52
34696;BME280;20918;51.138;17.370;2023-04-23T09:06:01;99490.45;;;22.13;37.45
34696;BME280;20918;51.138;17.370;2023-04-23T09:09:05;99492.77;;;22.26;37.98
34696;BME280;20918;51.138;17.370;2023-04-23T09:12:07;99489.80;;;22.46;37.67
34696;BME280;20918;51.138;17.370;2023-04-23T09:15:09;99489.20;;;22.47;37.00
34696;BME280;20918;51.138;17.370;2023-04-23T09:18:23;99484.65;;;22.53;37.41
34696;BME280;20918;51.138;17.370;2023-04-23T09:21:26;99485.14;;;22.45;37.11
34696;BME280;20918;51.138;17.370;2023-04-23T09:24:33;99485.16;;;22.40;37.08
34696;BME280;20918;51.138;17.370;2023-04-23T09:27:40;99484.07;;;22.39;37.06
34696;BME280;20918;51.138;17.370;2023-04-23T09:30:50;99483.03;;;22.53;37.22
34696;BME280;20918;51.138;17.370;2023-04-23T09:34:06;99480.02;;;22.54;37.06
34696;BME280;20918;51.138;17.370;2023-04-23T09:37:07;99476.15;;;22.60;37.17
34696;BME280;20918;51.138;17.370;2023-04-23T09:40:12;99473.25;;;22.63;37.30
34696;BME280;20918;51.138;17.370;2023-04-23T09:43:13;99470.54;;;22.62;37.28
34696;BME280;20918;51.138;17.370;2023-04-23T09:46:33;99464.48;;;22.71;37.51
34696;BME280;20918;51.138;17.370;2023-04-23T09:49:45;99460.13;;;22.87;37.43
34696;BME280;20918;51.138;17.370;2023-04-23T09:53:08;99456.95;;;22.93;37.34
34696;BME280;20918;51.138;17.370;2023-04-23T09:56:14;99458.23;;;23.03;37.05
34696;BME280;20918;51.138;17.370;2023-04-23T09:59:27;99456.63;;;23.11;36.81
34696;BME280;20918;51.138;17.370;2023-04-23T10:06:13;99450.33;;;23.20;37.08
34696;BME280;20918;51.138;17.370;2023-04-23T10:09:39;99449.85;;;23.07;36.28
34696;BME280;20918;51.138;17.370;2023-04-23T10:12:58;99443.52;;;22.78;36.61
34696;BME280;20918;51.138;17.370;2023-04-23T10:16:03;99442.23;;;22.49;36.82
34696;BME280;20918;51.138;17.370;2023-04-23T10:22:56;99438.86;;;22.44;37.25
34696;BME280;20918;51.138;17.370;2023-04-23T10:25:58;99442.29;;;22.46;37.26
34696;BME280;20918;51.138;17.370;2023-04-23T10:32:26;99438.69;;;22.85;36.99
34696;BME280;20918;51.138;17.370;2023-04-23T10:35:35;99438.37;;;22.87;37.39
34696;BME280;20918;51.138;17.370;2023-04-23T10:38:57;99434.45;;;23.02;37.66
34696;BME280;20918;51.138;17.370;2023-04-23T10:42:18;99432.05;;;23.25;37.67
34696;BME280;20918;51.138;17.370;2023-04-23T10:53:03;99423.69;;;23.45;36.27
34696;BME280;20918;51.138;17.370;2023-04-23T10:56:22;99430.90;;;23.24;37.28
34696;BME280;20918;51.138;17.370;2023-04-23T11:14:54;99437.80;;;22.56;38.47
34696;BME280;20918;51.138;17.370;2023-04-23T11:17:58;99440.48;;;22.34;38.59
34696;BME280;20918;51.138;17.370;2023-04-23T11:21:13;99438.55;;;22.21;39.16
34696;BME280;20918;51.138;17.370;2023-04-23T11:24:37;99439.75;;;22.06;39.34
34696;BME280;20918;51.138;17.370;2023-04-23T11:35:37;99438.42;;;21.68;40.30
34696;BME280;20918;51.138;17.370;2023-04-23T11:38:44;99441.06;;;21.62;40.52
34696;BME280;20918;51.138;17.370;2023-04-23T11:46:05;99443.91;;;21.56;41.02
34696;BME280;20918;51.138;17.370;2023-04-23T11:53:20;99440.81;;;21.43;41.50
34696;BME280;20918;51.138;17.370;2023-04-23T11:56:32;99442.18;;;21.38;41.71
34696;BME280;20918;51.138;17.370;2023-04-23T12:03:24;99448.13;;;21.31;42.00
34696;BME280;20918;51.138;17.370;2023-04-23T12:06:45;99445.08;;;21.30;42.01
34696;BME280;20918;51.138;17.370;2023-04-23T12:10:16;99444.00;;;21.38;42.01
34696;BME280;20918;51.138;17.370;2023-04-23T12:13:33;99445.90;;;21.49;42.01
34696;BME280;20918;51.138;17.370;2023-04-23T12:16:43;99449.38;;;21.62;42.13
34696;BME280;20918;51.138;17.370;2023-04-23T12:19:45;99445.01;;;21.67;42.31
34696;BME280;20918;51.138;17.370;2023-04-23T12:22:49;99443.65;;;21.68;42.17
34696;BME280;20918;51.138;17.370;2023-04-23T12:25:52;99444.05;;;21.70;42.16
34696;BME280;20918;51.138;17.370;2023-04-23T12:28:58;99441.55;;;21.74;42.33
34696;BME280;20918;51.138;17.370;2023-04-23T12:31:59;99439.64;;;21.78;42.09
34696;BME280;20918;51.138;17.370;2023-04-23T12:35:00;99443.13;;;21.75;42.06
34696;BME280;20918;51.138;17.370;2023-04-23T12:38:35;99444.29;;;21.78;42.38
34696;BME280;20918;51.138;17.370;2023-04-23T12:41:36;99442.52;;;21.79;42.59
34696;BME280;20918;51.138;17.370;2023-04-23T12:44:41;99440.57;;;21.84;43.03
34696;BME280;20918;51.138;17.370;2023-04-23T12:47:41;99439.55;;;21.91;42.98
34696;BME280;20918;51.138;17.370;2023-04-23T12:50:48;99435.52;;;21.94;43.15
34696;BME280;20918;51.138;17.370;2023-04-23T12:53:49;99433.68;;;22.03;43.28
34696;BME280;20918;51.138;17.370;2023-04-23T12:56:53;99431.94;;;22.09;43.07
34696;BME280;20918;51.138;17.370;2023-04-23T13:00:09;99427.38;;;22.05;42.81
34696;BME280;20918;51.138;17.370;2023-04-23T13:03:13;99430.79;;;21.93;42.42
34696;BME280;20918;51.138;17.370;2023-04-23T13:06:23;99431.38;;;21.91;42.62
34696;BME280;20918;51.138;17.370;2023-04-23T13:09:34;99439.71;;;22.00;42.82
34696;BME280;20918;51.138;17.370;2023-04-23T13:12:35;99435.21;;;21.98;42.43
34696;BME280;20918;51.138;17.370;2023-04-23T13:19:01;99440.59;;;21.76;43.10
34696;BME280;20918;51.138;17.370;2023-04-23T13:22:02;99442.04;;;21.76;43.60
34696;BME280;20918;51.138;17.370;2023-04-23T13:25:05;99443.02;;;21.70;43.58
34696;BME280;20918;51.138;17.370;2023-04-23T13:28:06;99445.40;;;21.59;43.65
34696;BME280;20918;51.138;17.370;2023-04-23T13:34:33;99439.35;;;21.42;44.21
34696;BME280;20918;51.138;17.370;2023-04-23T13:41:21;99439.15;;;21.30;44.71
34696;BME280;20918;51.138;17.370;2023-04-23T13:44:37;99440.95;;;21.33;44.90
34696;BME280;20918;51.138;17.370;2023-04-23T13:47:41;99441.38;;;21.32;45.05
34696;BME280;20918;51.138;17.370;2023-04-23T13:50:48;99441.86;;;21.31;44.99
34696;BME280;20918;51.138;17.370;2023-04-23T13:53:49;99439.98;;;21.28;45.19
34696;BME280;20918;51.138;17.370;2023-04-23T13:57:03;99441.02;;;21.30;45.42
34696;BME280;20918;51.138;17.370;2023-04-23T14:00:05;99438.80;;;21.28;45.45
34696;BME280;20918;51.138;17.370;2023-04-23T14:03:15;99435.81;;;21.26;45.60
34696;BME280;20918;51.138;17.370;2023-04-23T14:06:22;99438.41;;;21.18;45.72
34696;BME280;20918;51.138;17.370;2023-04-23T14:09:23;99438.52;;;21.08;45.97
34696;BME280;20918;51.138;17.370;2023-04-23T14:12:51;99441.63;;;20.79;45.34
34696;BME280;20918;51.138;17.370;2023-04-23T14:19:39;99452.54;;;20.29;45.99
34696;BME280;20918;51.138;17.370;2023-04-23T14:22:47;99449.20;;;20.18;45.83
34696;BME280;20918;51.138;17.370;2023-04-23T14:26:04;99451.12;;;20.06;45.65
34696;BME280;20918;51.138;17.370;2023-04-23T14:29:35;99451.39;;;20.00;45.88
34696;BME280;20918;51.138;17.370;2023-04-23T14:32:42;99451.66;;;20.01;46.20
34696;BME280;20918;51.138;17.370;2023-04-23T14:35:46;99447.30;;;20.04;46.18
34696;BME280;20918;51.138;17.370;2023-04-23T14:38:52;99449.35;;;20.07;46.20
34696;BME280;20918;51.138;17.370;2023-04-23T14:42:14;99449.15;;;20.14;46.41
34696;BME280;20918;51.138;17.370;2023-04-23T14:45:17;99448.88;;;20.19;46.14
34696;BME280;20918;51.138;17.370;2023-04-23T14:48:19;99446.09;;;20.17;46.21
34696;BME280;20918;51.138;17.370;2023-04-23T14:51:20;99448.41;;;20.15;46.30
34696;BME280;20918;51.138;17.370;2023-04-23T14:54:21;99446.91;;;20.16;46.23
34696;BME280;20918;51.138;17.370;2023-04-23T14:57:22;99449.92;;;20.23;46.24
34696;BME280;20918;51.138;17.370;2023-04-23T15:00:23;99448.76;;;20.28;46.20
34696;BME280;20918;51.138;17.370;2023-04-23T15:03:25;99450.02;;;20.33;46.13
34696;BME280;20918;51.138;17.370;2023-04-23T15:06:27;99447.04;;;20.29;45.97
34696;BME280;20918;51.138;17.370;2023-04-23T15:09:38;99447.02;;;20.20;46.12
34696;BME280;20918;51.138;17.370;2023-04-23T15:13:08;99445.43;;;20.19;46.33
34696;BME280;20918;51.138;17.370;2023-04-23T15:16:18;99446.87;;;20.11;46.32
34696;BME280;20918;51.138;17.370;2023-04-23T15:19:24;99445.39;;;19.92;46.52
34696;BME280;20918;51.138;17.370;2023-04-23T15:22:25;99451.70;;;19.74;46.72
34696;BME280;20918;51.138;17.370;2023-04-23T15:25:26;99453.02;;;19.66;47.13
34696;BME280;20918;51.138;17.370;2023-04-23T15:28:28;99454.76;;;19.56;47.18
34696;BME280;20918;51.138;17.370;2023-04-23T15:31:29;99456.13;;;19.40;47.42
34696;BME280;20918;51.138;17.370;2023-04-23T15:34:30;99455.42;;;19.28;47.56
34696;BME280;20918;51.138;17.370;2023-04-23T15:37:31;99459.09;;;19.18;48.01
34696;BME280;20918;51.138;17.370;2023-04-23T15:40:32;99460.14;;;19.08;48.01
34696;BME280;20918;51.138;17.370;2023-04-23T15:43:41;99461.39;;;18.93;48.18
34696;BME280;20918;51.138;17.370;2023-04-23T15:46:42;99463.45;;;18.78;48.58
34696;BME280;20918;51.138;17.370;2023-04-23T15:49:43;99464.10;;;18.67;48.92
34696;BME280;20918;51.138;17.370;2023-04-23T15:52:44;99462.88;;;18.59;49.13
34696;BME280;20918;51.138;17.370;2023-04-23T15:55:44;99457.94;;;18.54;49.27
34696;BME280;20918;51.138;17.370;2023-04-23T15:58:45;99457.22;;;18.43;49.31
34696;BME280;20918;51.138;17.370;2023-04-23T16:01:46;99458.02;;;18.33;49.63
34696;BME280;20918;51.138;17.370;2023-04-23T16:04:48;99459.88;;;18.23;50.01
34696;BME280;20918;51.138;17.370;2023-04-23T16:07:52;99456.33;;;18.11;50.57
34696;BME280;20918;51.138;17.370;2023-04-23T16:10:52;99455.93;;;18.04;50.79
34696;BME280;20918;51.138;17.370;2023-04-23T16:13:54;99454.81;;;18.00;51.00
34696;BME280;20918;51.138;17.370;2023-04-23T16:16:56;99447.02;;;17.97;51.17
34696;BME280;20918;51.138;17.370;2023-04-23T16:19:57;99448.34;;;17.97;51.41
34696;BME280;20918;51.138;17.370;2023-04-23T16:23:01;99444.30;;;17.93;51.53
34696;BME280;20918;51.138;17.370;2023-04-23T16:26:02;99442.59;;;17.89;51.69
34696;BME280;20918;51.138;17.370;2023-04-23T16:29:08;99441.83;;;17.80;51.97
34696;BME280;20918;51.138;17.370;2023-04-23T16:32:09;99442.18;;;17.74;52.28
34696;BME280;20918;51.138;17.370;2023-04-23T16:35:10;99444.45;;;17.68;52.77
34696;BME280;20918;51.138;17.370;2023-04-23T16:38:11;99442.45;;;17.62;52.77
34696;BME280;20918;51.138;17.370;2023-04-23T16:41:32;99443.98;;;17.52;52.89
34696;BME280;20918;51.138;17.370;2023-04-23T16:44:43;99447.05;;;17.42;53.02
34696;BME280;20918;51.138;17.370;2023-04-23T16:47:53;99443.45;;;17.32;53.40
34696;BME280;20918;51.138;17.370;2023-04-23T16:50:57;99444.95;;;17.24;53.64
34696;BME280;20918;51.138;17.370;2023-04-23T16:53:58;99445.45;;;17.15;53.83
34696;BME280;20918;51.138;17.370;2023-04-23T16:56:59;99443.31;;;17.04;54.24
34696;BME280;20918;51.138;17.370;2023-04-23T17:00:01;99438.71;;;16.92;54.57
34696;BME280;20918;51.138;17.370;2023-04-23T17:03:04;99434.88;;;16.82;54.84
34696;BME280;20918;51.138;17.370;2023-04-23T17:06:11;99433.90;;;16.75;55.35
34696;BME280;20918;51.138;17.370;2023-04-23T17:09:20;99437.57;;;16.67;55.83
34696;BME280;20918;51.138;17.370;2023-04-23T17:12:21;99437.55;;;16.60;56.40
34696;BME280;20918;51.138;17.370;2023-04-23T17:15:22;99436.37;;;16.52;56.95
34696;BME280;20918;51.138;17.370;2023-04-23T17:18:24;99436.46;;;16.47;57.36
34696;BME280;20918;51.138;17.370;2023-04-23T17:21:25;99433.58;;;16.47;57.78
34696;BME280;20918;51.138;17.370;2023-04-23T17:24:26;99429.35;;;16.48;58.40
34696;BME280;20918;51.138;17.370;2023-04-23T17:27:27;99429.48;;;16.50;58.68
34696;BME280;20918;51.138;17.370;2023-04-23T17:30:37;99430.23;;;16.52;58.79
34696;BME280;20918;51.138;17.370;2023-04-23T17:33:40;99429.44;;;16.53;58.79
34696;BME280;20918;51.138;17.370;2023-04-23T17:36:44;99426.15;;;16.53;58.82
34696;BME280;20918;51.138;17.370;2023-04-23T17:39:48;99422.64;;;16.53;58.92